Time;durP1;ratioP1;P1;durP2;ratioP2;P2;SDS_P1;SDS_P2;PMS_P1;PMS_P2;Temp;Humidity;BMP_temperature;BMP_pressure;BME280_temperature;BME280_humidity;BME280_pressure;Samples;Min_cycle;Max_cycle;Signal;HPM_P1;HPM_P2
2021/06/28 00:01:30;;;;;;;18.48;7.45;;;;;;;13.27;83.16;101325.88;4773425;30;20066;-77
2021/06/28 00:03:56;;;;;;;18.83;7.82;;;;;;;13.32;83.02;101342.34;4786778;29;20059;-77
2021/06/28 00:06:21;;;;;;;16.83;7.60;;;;;;;13.15;83.33;101318.34;4787731;30;20359;-77
2021/06/28 00:08:48;;;;;;;18.52;8.00;;;;;;;13.16;83.39;101341.63;4787511;30;20063;-77
2021/06/28 00:11:14;;;;;;;22.67;8.85;;;;;;;13.12;83.59;101348.47;4788256;30;20062;-76
2021/06/28 00:13:41;;;;;;;19.20;7.88;;;;;;;13.05;83.79;101342.22;4787658;30;20063;-77
2021/06/28 00:16:07;;;;;;;14.27;7.60;;;;;;;12.98;83.83;101335.97;4787777;29;20041;-77
2021/06/28 00:18:33;;;;;;;22.75;8.65;;;;;;;12.93;84.13;101338.41;4787903;30;20031;-77
2021/06/28 00:20:59;;;;;;;20.35;8.38;;;;;;;12.90;84.23;101338.81;4786010;29;20135;-77
2021/06/28 00:23:25;;;;;;;19.48;8.40;;;;;;;12.84;84.25;101336.91;4802884;29;20100;-77
2021/06/28 00:25:50;;;;;;;14.15;8.00;;;;;;;12.79;84.39;101336.72;4789648;30;20047;-77
2021/06/28 00:28:16;;;;;;;18.77;8.23;;;;;;;12.77;84.39;101341.47;4775919;30;20078;-77
2021/06/28 00:30:44;;;;;;;21.67;8.20;;;;;;;12.75;84.63;101341.69;4805022;29;20131;-77
2021/06/28 00:33:11;;;;;;;13.23;7.93;;;;;;;12.74;84.78;101352.66;4789451;30;20031;-77
2021/06/28 00:35:37;;;;;;;19.05;8.60;;;;;;;12.70;84.92;101346.81;4805784;29;20352;-77
2021/06/28 00:38:03;;;;;;;17.83;8.50;;;;;;;12.60;84.77;101330.16;4790740;29;20068;-77
2021/06/28 00:40:29;;;;;;;17.90;8.70;;;;;;;12.60;84.92;101341.78;4790187;29;20043;-77
2021/06/28 00:42:54;;;;;;;17.05;7.80;;;;;;;12.52;85.12;101333.03;4790008;30;20736;-77
2021/06/28 00:45:25;;;;;;;16.15;8.00;;;;;;;12.48;84.93;101340.66;4790350;30;20053;-77
2021/06/28 00:47:54;;;;;;;12.25;8.10;;;;;;;12.32;85.25;101325.66;4790109;30;20019;-76
2021/06/28 00:50:21;;;;;;;19.05;8.38;;;;;;;12.40;85.21;101341.66;4789640;29;20051;-77
2021/06/28 00:52:49;;;;;;;18.98;8.70;;;;;;;12.38;85.36;101338.34;4791063;30;20104;-77
2021/06/28 00:55:15;;;;;;;19.00;8.80;;;;;;;12.28;85.53;101331.63;4790126;30;20027;-77
2021/06/28 00:57:41;;;;;;;16.23;8.00;;;;;;;12.27;85.90;101336.19;4789979;29;20039;-77
2021/06/28 01:00:09;;;;;;;20.65;8.65;;;;;;;12.22;85.61;101338.66;4789499;29;20356;-77
2021/06/28 01:02:35;;;;;;;17.80;8.35;;;;;;;12.16;85.69;101329.47;4790760;29;20035;-77
2021/06/28 01:05:04;;;;;;;19.23;8.80;;;;;;;12.07;85.95;101319.88;4789445;29;20047;-77
2021/06/28 01:07:29;;;;;;;19.35;9.00;;;;;;;12.10;86.09;101332.97;4789628;29;20039;-77
2021/06/28 01:09:55;;;;;;;23.58;9.40;;;;;;;12.04;86.45;101317.56;4789340;30;20042;-77
2021/06/28 01:12:22;;;;;;;22.23;9.13;;;;;;;12.09;85.98;101328.59;4790746;29;20042;-77
2021/06/28 01:14:48;;;;;;;16.13;7.95;;;;;;;12.09;86.19;101322.38;4789173;30;20028;-77
2021/06/28 01:17:15;;;;;;;22.08;9.18;;;;;;;12.05;86.27;101332.69;4790609;30;20050;-77
2021/06/28 01:19:49;;;;;;;16.33;7.80;;;;;;;11.94;86.53;101320.59;4774316;30;20038;-77
2021/06/28 01:22:18;;;;;;;17.65;8.75;;;;;;;11.91;86.42;101326.38;4790562;30;20046;-77
2021/06/28 01:24:44;;;;;;;16.23;8.10;;;;;;;11.89;86.25;101338.41;4790888;30;20414;-77
2021/06/28 01:27:09;;;;;;;19.58;8.70;;;;;;;11.85;86.22;101340.63;4774822;30;20109;-77
2021/06/28 01:29:35;;;;;;;17.92;8.57;;;;;;;11.81;86.58;101338.50;4775546;30;20468;-77
2021/06/28 01:32:00;;;;;;;17.92;8.18;;;;;;;11.69;86.75;101327.41;4790408;30;20123;-77
2021/06/28 01:34:25;;;;;;;14.75;8.35;;;;;;;11.66;86.67;101334.03;4789371;30;20065;-77
2021/06/28 01:36:51;;;;;;;18.05;8.60;;;;;;;11.65;87.00;101337.72;4788969;29;20114;-77
2021/06/28 01:39:16;;;;;;;18.52;8.30;;;;;;;11.63;86.73;101323.63;4790134;29;20370;-77
2021/06/28 01:41:42;;;;;;;15.88;8.23;;;;;;;11.62;86.77;101330.06;4762487;30;20039;-77
2021/06/28 01:44:07;;;;;;;21.48;9.00;;;;;;;11.60;87.12;101334.78;4809353;29;20377;-77
2021/06/28 01:46:32;;;;;;;23.15;8.52;;;;;;;11.55;87.00;101333.69;4779066;30;20047;-77
2021/06/28 01:48:58;;;;;;;18.15;8.82;;;;;;;11.48;86.72;101337.16;4795430;29;20085;-77
2021/06/28 01:51:23;;;;;;;19.52;8.75;;;;;;;11.41;87.56;101319.25;4796598;30;20067;-77
2021/06/28 01:53:49;;;;;;;16.27;8.32;;;;;;;11.37;87.23;101316.13;4796607;30;20035;-77
2021/06/28 01:56:14;;;;;;;20.88;8.98;;;;;;;11.44;87.48;101340.44;4805085;29;20039;-77
2021/06/28 01:58:40;;;;;;;19.55;8.80;;;;;;;11.38;87.15;101336.63;4763597;30;20487;-77
2021/06/28 02:01:06;;;;;;;22.75;8.40;;;;;;;11.30;87.28;101339.47;4772993;30;20105;-77
2021/06/28 02:03:37;;;;;;;15.27;7.88;;;;;;;11.29;87.50;101335.94;4788525;29;20093;-76
2021/06/28 02:06:03;;;;;;;21.67;8.93;;;;;;;11.34;87.94;101343.44;4803337;29;20031;-77
2021/06/28 02:08:32;;;;;;;23.42;8.95;;;;;;;11.39;87.61;101342.84;4788289;30;20540;-77
2021/06/28 02:11:00;;;;;;;18.77;8.90;;;;;;;11.39;88.10;101341.03;4790321;29;20041;-77
2021/06/28 02:13:31;;;;;;;19.50;8.25;;;;;;;11.41;88.01;101338.94;4803442;29;20031;-77
2021/06/28 02:15:57;;;;;;;20.38;8.85;;;;;;;11.46;87.72;101333.84;4789086;30;20119;-77
2021/06/28 02:18:24;;;;;;;17.17;8.27;;;;;;;11.45;87.83;101332.13;4788058;30;20366;-77
2021/06/28 02:20:58;;;;;;;16.90;8.20;;;;;;;11.32;87.77;101307.75;4787526;30;20019;-77
2021/06/28 02:23:33;;;;;;;18.80;8.68;;;;;;;11.48;87.52;101325.53;4789880;29;20035;-77
2021/06/28 02:26:02;;;;;;;28.50;9.32;;;;;;;11.37;87.77;101308.03;4788093;29;20023;-76
2021/06/28 02:28:30;;;;;;;17.17;7.75;;;;;;;11.52;87.62;101324.13;4788342;29;20031;-77
2021/06/28 02:30:57;;;;;;;17.85;8.43;;;;;;;11.58;87.85;101319.84;4788291;29;20028;-76
2021/06/28 02:33:23;;;;;;;19.83;8.45;;;;;;;11.65;87.64;101316.16;4788883;30;20074;-77
2021/06/28 02:35:49;;;;;;;17.35;8.32;;;;;;;11.67;87.31;101303.34;4788761;29;20059;-76
2021/06/28 02:38:16;;;;;;;19.80;8.40;;;;;;;11.79;87.00;101309.03;4789192;29;20071;-77
2021/06/28 02:40:41;;;;;;;21.98;9.02;;;;;;;12.03;86.84;101306.97;4787893;30;20032;-77
2021/06/28 02:43:07;;;;;;;19.25;8.00;;;;;;;12.45;85.94;101311.41;4787244;30;20126;-77
2021/06/28 02:45:33;;;;;;;17.98;8.32;;;;;;;12.85;84.56;101306.19;4787772;30;20055;-78
2021/06/28 02:47:59;;;;;;;20.90;8.52;;;;;;;13.13;83.23;101287.97;4787948;29;20100;-77
2021/06/28 02:50:24;;;;;;;16.70;8.02;;;;;;;13.59;82.47;101299.94;4788445;30;20502;-77
2021/06/28 02:52:50;;;;;;;19.67;7.38;;;;;;;14.02;81.19;101303.06;4772671;29;20073;-77
2021/06/28 02:55:15;;;;;;;14.98;7.22;;;;;;;14.48;79.93;101309.44;4788739;30;20111;-77
2021/06/28 02:57:41;;;;;;;12.65;7.00;;;;;;;14.80;78.43;101297.69;4787852;30;20503;-77
2021/06/28 03:00:17;;;;;;;14.60;6.72;;;;;;;15.15;77.98;101307.31;4788561;30;20055;-77
2021/06/28 03:02:42;;;;;;;17.35;6.82;;;;;;;15.43;76.26;101293.34;4787274;29;20366;-77
2021/06/28 03:05:10;;;;;;;16.30;6.40;;;;;;;15.82;75.24;101286.81;4786290;30;20062;-77
2021/06/28 03:07:36;;;;;;;13.27;6.45;;;;;;;16.16;74.09;101293.63;4787437;30;20043;-77
2021/06/28 03:10:07;;;;;;;15.27;7.38;;;;;;;16.59;73.23;101291.94;4786225;30;20035;-76
2021/06/28 03:12:33;;;;;;;19.15;6.00;;;;;;;17.00;71.68;101283.06;4789670;29;20392;-77
2021/06/28 03:14:58;;;;;;;20.33;6.05;;;;;;;17.57;70.25;101301.69;4787551;30;20050;-77
2021/06/28 03:17:24;;;;;;;15.82;5.75;;;;;;;17.95;69.27;101290.41;4789294;30;20043;-77
2021/06/28 03:19:49;;;;;;;15.80;5.50;;;;;;;18.42;68.06;101297.72;4771864;30;20408;-76
2021/06/28 03:22:16;;;;;;;18.88;6.13;;;;;;;18.75;67.24;101289.72;4786807;30;20111;-77
2021/06/28 03:24:43;;;;;;;21.17;5.50;;;;;;;19.23;66.06;101285.72;4787941;30;20046;-77
2021/06/28 03:27:08;;;;;;;16.35;5.25;;;;;;;19.34;65.66;101289.50;4801154;29;20035;-77
2021/06/28 03:29:33;;;;;;;15.65;5.28;;;;;;;19.69;64.78;101288.47;4786840;30;20347;-77
2021/06/28 03:31:59;;;;;;;19.67;6.15;;;;;;;20.22;63.40;101286.28;4787881;29;20039;-77
2021/06/28 03:34:24;;;;;;;16.50;5.05;;;;;;;20.45;62.78;101286.03;4787746;30;20096;-77
2021/06/28 03:36:50;;;;;;;20.83;5.35;;;;;;;20.89;61.77;101275.13;4788123;30;20450;-77
2021/06/28 03:39:15;;;;;;;26.92;5.90;;;;;;;20.94;61.27;101266.16;4786398;30;20477;-77
2021/06/28 03:41:40;;;;;;;20.80;5.70;;;;;;;20.98;61.07;101281.78;4757585;30;20035;-77
2021/06/28 03:44:06;;;;;;;17.35;5.03;;;;;;;21.05;60.66;101285.16;4771923;30;20039;-77
2021/06/28 03:46:32;;;;;;;18.42;4.90;;;;;;;21.14;60.68;101279.22;4786468;30;20039;-77
2021/06/28 03:48:57;;;;;;;18.10;5.10;;;;;;;21.39;59.61;101265.81;4788263;29;20039;-77
2021/06/28 03:51:23;;;;;;;22.65;5.13;;;;;;;21.47;59.28;101276.28;4785882;29;20081;-76
2021/06/28 03:53:48;;;;;;;18.63;4.95;;;;;;;21.36;58.91;101271.81;4784623;29;20054;-77
2021/06/28 03:56:14;;;;;;;16.05;4.90;;;;;;;21.56;58.54;101274.72;4771845;30;20051;-77
2021/06/28 03:58:43;;;;;;;18.80;5.10;;;;;;;21.64;58.31;101278.91;4789933;29;20043;-77
2021/06/28 04:01:08;;;;;;;19.77;5.60;;;;;;;21.99;57.58;101261.91;4791095;30;20042;-77
2021/06/28 04:03:38;;;;;;;18.23;5.32;;;;;;;22.07;57.04;101281.66;4793269;29;20032;-77
2021/06/28 04:06:06;;;;;;;21.17;5.35;;;;;;;22.32;56.57;101287.34;4793528;30;20023;-77
2021/06/28 04:08:36;;;;;;;17.67;5.20;;;;;;;22.30;56.53;101284.03;4792432;30;20035;-77
2021/06/28 04:11:03;;;;;;;21.83;5.50;;;;;;;22.18;56.67;101281.47;4792998;29;20027;-76
2021/06/28 04:13:29;;;;;;;17.27;4.93;;;;;;;20.85;59.79;101290.41;4793156;29;20068;-76
2021/06/28 04:15:54;;;;;;;16.88;5.07;;;;;;;20.11;61.37;101288.03;4789916;29;20042;-77
2021/06/28 04:18:20;;;;;;;19.77;5.13;;;;;;;19.46;63.09;101273.84;4790927;29;20047;-76
2021/06/28 04:20:46;;;;;;;14.23;4.80;;;;;;;19.33;63.84;101287.00;4790184;29;20061;-77
2021/06/28 04:23:12;;;;;;;18.83;5.60;;;;;;;19.41;64.05;101278.44;4789041;30;20459;-77
2021/06/28 04:25:38;;;;;;;15.93;5.50;;;;;;;19.42;63.68;101285.53;4813275;29;20050;-77
2021/06/28 04:28:04;;;;;;;15.98;5.53;;;;;;;20.52;61.34;101278.50;4804028;29;20038;-77
2021/06/28 04:30:30;;;;;;;17.02;5.47;;;;;;;21.83;58.13;101292.19;4790859;29;20037;-77
2021/06/28 04:32:56;;;;;;;19.10;5.30;;;;;;;21.20;59.25;101291.88;4790404;29;20047;-77
2021/06/28 04:35:24;;;;;;;18.20;5.53;;;;;;;20.12;61.74;101293.22;4790239;29;20413;-77
2021/06/28 04:37:51;;;;;;;18.33;5.03;;;;;;;19.63;63.31;101290.28;4789395;29;20428;-77
2021/06/28 04:40:18;;;;;;;19.50;5.85;;;;;;;19.15;64.79;101280.69;4789947;29;20042;-77
2021/06/28 04:42:45;;;;;;;18.48;5.78;;;;;;;19.31;64.42;101281.81;4789912;29;20122;-77
2021/06/28 04:45:12;;;;;;;19.50;5.50;;;;;;;18.95;64.37;101242.13;4793508;29;20035;-77
2021/06/28 04:47:37;;;;;;;21.52;5.72;;;;;;;19.06;64.46;101276.69;4789153;29;20075;-77
2021/06/28 04:50:05;;;;;;;24.02;5.57;;;;;;;19.04;64.83;101292.50;4789982;29;20063;-77
2021/06/28 04:52:33;;;;;;;16.58;5.57;;;;;;;19.08;64.93;101290.09;4791077;29;20039;-77
2021/06/28 04:54:59;;;;;;;17.88;5.60;;;;;;;19.13;64.61;101301.09;4792668;29;20477;-77
2021/06/28 04:57:25;;;;;;;18.42;5.28;;;;;;;18.91;65.08;101292.78;4791298;30;20043;-77
2021/06/28 04:59:51;;;;;;;15.38;5.35;;;;;;;19.43;63.83;101285.28;4791566;29;20088;-77
2021/06/28 05:02:17;;;;;;;20.60;5.72;;;;;;;19.61;63.57;101276.03;4792536;29;20117;-78
2021/06/28 05:04:42;;;;;;;20.67;5.18;;;;;;;20.14;61.50;101241.91;4789875;29;20130;-78
2021/06/28 05:07:08;;;;;;;16.08;4.88;;;;;;;20.52;60.80;101274.94;4775056;29;20070;-77
2021/06/28 05:09:33;;;;;;;14.20;5.20;;;;;;;20.36;61.42;101295.75;4790104;29;20038;-77
2021/06/28 05:11:59;;;;;;;19.63;5.38;;;;;;;20.26;61.74;101295.63;4789071;29;20476;-77
2021/06/28 05:14:26;;;;;;;20.13;5.80;;;;;;;20.29;61.64;101287.72;4787901;29;20038;-77
2021/06/28 05:16:53;;;;;;;13.55;5.63;;;;;;;20.45;61.46;101286.03;4772762;29;20595;-77
2021/06/28 05:19:18;;;;;;;19.05;5.55;;;;;;;20.33;61.70;101288.91;4787187;29;20031;-77
2021/06/28 05:21:44;;;;;;;15.18;5.28;;;;;;;20.24;62.04;101290.41;4782714;29;20800;-77
2021/06/28 05:24:09;;;;;;;22.02;5.43;;;;;;;20.31;61.61;101273.84;4795336;29;20104;-77
2021/06/28 05:26:35;;;;;;;17.58;5.85;;;;;;;20.64;61.41;101289.34;4781036;29;20027;-77
2021/06/28 05:29:01;;;;;;;17.63;5.25;;;;;;;20.61;61.15;101284.38;4781725;29;20490;-77
2021/06/28 05:31:26;;;;;;;16.10;5.65;;;;;;;20.40;61.53;101272.31;4789401;29;20027;-77
2021/06/28 05:33:53;;;;;;;22.95;6.18;;;;;;;20.39;61.55;101276.94;4789640;29;20031;-77
2021/06/28 05:36:19;;;;;;;16.45;5.63;;;;;;;20.52;62.12;101274.94;4804614;29;20027;-77
2021/06/28 05:38:45;;;;;;;19.45;5.85;;;;;;;20.52;61.94;101256.63;4787839;30;20478;-77
2021/06/28 05:41:10;;;;;;;16.83;5.30;;;;;;;20.74;61.07;101283.16;4787980;29;20035;-77
2021/06/28 05:43:35;;;;;;;17.52;5.05;;;;;;;20.57;61.36;101284.06;4787332;30;20100;-77
2021/06/28 05:46:01;;;;;;;21.95;6.47;;;;;;;20.15;61.79;101276.34;4773242;30;20043;-77
2021/06/28 05:48:26;;;;;;;17.50;5.32;;;;;;;20.09;62.36;101291.00;4787935;29;20046;-77
2021/06/28 05:50:52;;;;;;;16.30;5.45;;;;;;;20.36;62.09;101291.13;4788561;29;20516;-77
2021/06/28 05:53:17;;;;;;;17.20;5.93;;;;;;;20.39;61.79;101282.41;4790317;30;20035;-77
2021/06/28 05:55:43;;;;;;;17.23;5.60;;;;;;;20.34;61.66;101292.47;4773880;30;20417;-77
2021/06/28 05:58:08;;;;;;;20.42;5.78;;;;;;;20.07;62.45;101286.91;4789915;30;20035;-77
2021/06/28 06:00:34;;;;;;;13.52;5.25;;;;;;;20.16;62.29;101286.22;4789480;29;20390;-77
2021/06/28 06:03:01;;;;;;;17.88;5.43;;;;;;;20.03;62.70;101267.41;4772483;30;20043;-78
2021/06/28 06:05:27;;;;;;;18.60;5.68;;;;;;;20.15;61.88;101292.75;4786098;30;20062;-78
2021/06/28 06:07:52;;;;;;;18.50;6.07;;;;;;;19.94;61.86;101271.69;4785869;29;20081;-78
2021/06/28 06:10:18;;;;;;;16.45;5.43;;;;;;;19.86;62.31;101274.81;4785174;29;20031;-78
2021/06/28 06:12:44;;;;;;;18.63;5.22;;;;;;;19.99;62.75;101279.09;4774267;30;20356;-78
2021/06/28 06:15:11;;;;;;;17.17;5.80;;;;;;;20.10;62.13;101287.22;4787430;29;20034;-78
2021/06/28 06:17:38;;;;;;;17.60;5.93;;;;;;;19.92;61.80;101288.28;4785388;29;20035;-77
2021/06/28 06:20:05;;;;;;;19.77;5.80;;;;;;;19.56;62.90;101286.84;4785722;29;20067;-78
2021/06/28 06:22:30;;;;;;;16.77;6.07;;;;;;;19.74;63.23;101290.47;4785377;29;20034;-78
2021/06/28 06:24:56;;;;;;;21.05;5.53;;;;;;;19.85;62.23;101284.09;4770945;29;20035;-77
2021/06/28 06:27:28;;;;;;;15.60;5.03;;;;;;;19.56;62.42;101278.66;4795012;29;20034;-78
2021/06/28 06:29:53;;;;;;;20.73;5.82;;;;;;;19.49;63.14;101302.56;4803115;29;20035;-77
2021/06/28 06:32:18;;;;;;;19.85;6.22;;;;;;;19.53;63.30;101309.19;4782251;30;20035;-77
2021/06/28 06:34:44;;;;;;;17.05;6.03;;;;;;;19.46;63.04;101289.41;4785333;29;20043;-78
2021/06/28 06:37:09;;;;;;;17.90;5.72;;;;;;;19.60;62.86;101304.41;4786751;29;20039;-78
2021/06/28 06:39:35;;;;;;;17.58;5.45;;;;;;;19.30;63.17;101312.88;4784875;29;20042;-78
2021/06/28 06:42:00;;;;;;;20.08;6.18;;;;;;;19.29;63.95;101318.59;4784266;29;20043;-78
2021/06/28 06:44:26;;;;;;;19.60;5.75;;;;;;;19.47;63.35;101319.22;4785828;29;20134;-78
2021/06/28 06:46:51;;;;;;;20.90;6.28;;;;;;;19.60;63.21;101319.94;4786455;30;20446;-77
2021/06/28 06:49:17;;;;;;;15.13;5.72;;;;;;;19.33;62.78;101289.72;4781640;30;20470;-78
2021/06/28 06:51:43;;;;;;;15.00;5.65;;;;;;;19.39;63.30;101332.41;4788568;30;20027;-77
2021/06/28 06:54:10;;;;;;;16.92;5.65;;;;;;;19.46;63.07;101333.91;4779264;29;20155;-77
2021/06/28 06:56:35;;;;;;;17.17;5.47;;;;;;;19.57;62.79;101340.41;4787402;30;20077;-77
2021/06/28 06:59:01;;;;;;;13.48;5.95;;;;;;;19.48;62.86;101341.88;4786399;30;20775;-78
2021/06/28 07:01:26;;;;;;;15.98;6.07;;;;;;;19.47;62.84;101335.59;4788436;29;20042;-78
2021/06/28 07:03:52;;;;;;;22.02;6.50;;;;;;;19.63;62.85;101330.38;4785792;29;20050;-77
2021/06/28 07:06:18;;;;;;;17.88;6.07;;;;;;;20.00;62.53;101338.97;4773753;29;20068;-78
2021/06/28 07:08:43;;;;;;;17.15;5.63;;;;;;;20.09;61.75;101339.34;4789147;30;20498;-78
2021/06/28 07:11:12;;;;;;;18.58;5.90;;;;;;;19.70;62.34;101334.66;4775961;30;20035;-78
2021/06/28 07:13:43;;;;;;;18.73;6.05;;;;;;;19.84;62.41;101334.34;4790264;30;20092;-78
2021/06/28 07:16:09;;;;;;;18.65;5.88;;;;;;;19.92;62.49;101348.38;4788122;30;20462;-78
2021/06/28 07:18:35;;;;;;;22.52;5.57;;;;;;;20.04;62.14;101348.31;4787319;30;20050;-78
2021/06/28 07:21:03;;;;;;;18.52;5.50;;;;;;;19.92;61.93;101320.25;4781579;30;20042;-77
2021/06/28 07:23:30;;;;;;;16.05;5.45;;;;;;;20.06;61.80;101348.88;4784287;30;20126;-77
2021/06/28 07:25:56;;;;;;;19.55;6.25;;;;;;;19.85;62.56;101314.94;4784731;30;20023;-78
2021/06/28 07:28:21;;;;;;;19.98;6.00;;;;;;;20.23;62.08;101356.22;4785519;30;20039;-77
2021/06/28 07:30:47;;;;;;;18.20;5.72;;;;;;;19.76;61.99;101337.47;4786573;30;20039;-77
2021/06/28 07:33:12;;;;;;;19.92;5.95;;;;;;;19.65;62.83;101356.41;4784721;29;20035;-78
2021/06/28 07:35:39;;;;;;;21.23;6.18;;;;;;;19.73;63.14;101359.78;4784707;29;20039;-78
2021/06/28 07:38:04;;;;;;;23.33;6.60;;;;;;;19.97;62.26;101352.25;4784925;29;20139;-77
2021/06/28 07:40:30;;;;;;;16.60;6.03;;;;;;;20.14;62.14;101356.66;4785054;29;20063;-78
2021/06/28 07:42:56;;;;;;;17.02;5.55;;;;;;;19.93;61.98;101360.97;4784411;30;20059;-77
2021/06/28 07:45:23;;;;;;;14.02;5.57;;;;;;;19.61;62.27;101347.00;4784163;29;20046;-77
2021/06/28 07:47:49;;;;;;;18.30;6.25;;;;;;;19.74;62.82;101351.38;4781319;29;20114;-77
2021/06/28 07:50:17;;;;;;;15.02;6.10;;;;;;;20.00;62.48;101358.09;4790374;29;20125;-77
2021/06/28 07:52:43;;;;;;;18.33;6.32;;;;;;;20.01;62.59;101361.66;4785013;29;20481;-77
2021/06/28 07:55:11;;;;;;;17.13;6.22;;;;;;;19.92;62.19;101363.94;4772442;30;20078;-77
2021/06/28 07:57:37;;;;;;;19.80;6.50;;;;;;;19.95;62.26;101360.72;4786553;29;20505;-77
2021/06/28 08:00:14;;;;;;;21.10;5.93;;;;;;;19.90;62.52;101372.41;4788615;29;20039;-77
2021/06/28 08:02:39;;;;;;;17.38;5.80;;;;;;;20.08;62.28;101373.22;4786540;29;20035;-78
2021/06/28 08:05:06;;;;;;;19.63;5.90;;;;;;;20.26;62.20;101364.75;4788041;29;20134;-78
2021/06/28 08:07:32;;;;;;;18.08;6.28;;;;;;;20.26;61.56;101377.59;4786806;29;20032;-77
2021/06/28 08:09:57;;;;;;;13.40;5.38;;;;;;;20.26;61.71;101377.59;4796731;29;20028;-77
2021/06/28 08:12:23;;;;;;;19.58;6.50;;;;;;;20.16;61.89;101362.72;4778145;29;20032;-77
2021/06/28 08:14:48;;;;;;;15.55;5.75;;;;;;;20.02;61.89;101364.13;4793568;29;20059;-78
2021/06/28 08:17:14;;;;;;;19.38;5.90;;;;;;;19.87;62.01;101374.81;4780444;29;20525;-77
2021/06/28 08:19:42;;;;;;;19.05;6.28;;;;;;;19.68;62.65;101325.88;4785719;29;20026;-76
2021/06/28 08:22:09;;;;;;;19.38;5.65;;;;;;;19.83;62.27;101368.97;4793597;29;20446;-77
2021/06/28 08:24:35;;;;;;;22.20;6.18;;;;;;;19.98;62.77;101375.78;4793929;29;20561;-77
2021/06/28 08:27:00;;;;;;;27.35;6.57;;;;;;;19.87;62.69;101364.69;4784903;29;20042;-77
2021/06/28 08:29:26;;;;;;;16.85;6.00;;;;;;;19.98;62.59;101375.78;4798060;29;20462;-78
2021/06/28 08:31:51;;;;;;;16.95;6.65;;;;;;;19.93;62.26;101360.97;4770477;30;20474;-77
2021/06/28 08:34:17;;;;;;;16.00;5.93;;;;;;;19.82;62.56;101372.78;4783896;29;20462;-77
2021/06/28 08:36:45;;;;;;;15.20;6.25;;;;;;;19.85;62.66;101387.88;4798738;29;20143;-77
2021/06/28 08:39:12;;;;;;;15.60;5.75;;;;;;;19.88;62.37;101373.72;4798745;29;20042;-78
2021/06/28 08:41:42;;;;;;;18.63;6.32;;;;;;;20.01;62.37;101387.06;4783874;29;20031;-77
2021/06/28 08:44:08;;;;;;;18.45;6.22;;;;;;;20.09;62.06;101386.63;4795784;29;20348;-78
2021/06/28 08:46:34;;;;;;;15.35;6.00;;;;;;;20.33;61.85;101386.44;4792316;29;20032;-77
2021/06/28 08:49:00;;;;;;;21.00;6.07;;;;;;;20.53;61.54;101386.81;4790733;29;20485;-77
2021/06/28 08:51:25;;;;;;;17.05;6.45;;;;;;;20.63;61.31;101392.41;4787791;30;20096;-77
2021/06/28 08:53:55;;;;;;;21.05;6.43;;;;;;;20.64;61.32;101390.50;4786825;30;20044;-78
2021/06/28 08:56:21;;;;;;;15.60;6.07;;;;;;;20.65;60.72;101389.41;4790778;29;20067;-77
2021/06/28 08:58:47;;;;;;;18.13;6.05;;;;;;;20.44;60.74;101382.81;4787123;29;20027;-77
2021/06/28 09:01:13;;;;;;;16.13;6.40;;;;;;;20.38;61.51;101378.34;4786280;29;20868;-77
2021/06/28 09:03:38;;;;;;;17.67;5.93;;;;;;;20.63;61.23;101395.16;4780547;29;20076;-77
2021/06/28 09:06:06;;;;;;;19.98;6.40;;;;;;;20.58;60.94;101384.13;4788577;29;20685;-77
2021/06/28 09:08:34;;;;;;;18.20;6.40;;;;;;;20.55;60.50;101403.78;4787185;29;20055;-77
2021/06/28 09:11:00;;;;;;;18.45;6.38;;;;;;;20.69;60.49;101400.69;4787603;29;20114;-77
2021/06/28 09:13:44;;;;;;;24.88;6.90;;;;;;;20.83;60.16;101393.78;4795171;29;20043;-77
2021/06/28 09:16:29;;;;;;;18.20;6.68;;;;;;;21.03;59.96;101410.47;4787622;29;20043;-77
2021/06/28 09:18:55;;;;;;;;;;;;;;;20.98;60.08;101404.91;4784253;29;20072;-77
2021/06/28 09:21:38;;;;;;;17.38;6.50;;;;;;;20.95;58.98;101404.59;4787427;29;19970;-77
2021/06/28 09:24:08;;;;;;;17.77;6.13;;;;;;;20.96;59.98;101400.75;4802765;29;20287;-78
2021/06/28 09:26:36;;;;;;;18.42;6.57;;;;;;;21.11;60.03;101412.75;4806813;29;20099;-78
2021/06/28 09:29:06;;;;;;;17.13;6.55;;;;;;;21.32;59.10;101405.63;4793930;29;20054;-78
2021/06/28 09:31:52;;;;;;;25.80;7.35;;;;;;;21.48;58.82;101412.09;4788427;29;20068;-77
2021/06/28 09:34:24;;;;;;;15.52;6.30;;;;;;;21.49;58.43;101401.97;4786965;29;20039;-77
2021/06/28 09:36:57;;;;;;;14.68;6.20;;;;;;;21.30;58.40;101413.25;4787166;29;20443;-78
2021/06/28 09:39:25;;;;;;;16.52;6.30;;;;;;;21.15;59.11;101404.00;4800150;29;20045;-77
2021/06/28 09:41:58;;;;;;;15.63;5.97;;;;;;;21.19;59.15;101411.47;4786109;29;20067;-77
2021/06/28 09:44:25;;;;;;;24.40;7.65;;;;;;;21.23;59.88;101409.06;4786362;30;20039;-78
2021/06/28 09:47:07;;;;;;;21.73;6.72;;;;;;;21.40;59.24;101412.56;4784169;29;20036;-78
2021/06/28 09:49:32;;;;;;;16.77;6.65;;;;;;;21.55;58.46;101431.06;4787361;29;20466;-77
2021/06/28 09:51:58;;;;;;;16.98;6.30;;;;;;;21.33;58.81;101428.34;4783277;29;20043;-76
2021/06/28 09:54:23;;;;;;;19.95;6.55;;;;;;;21.57;58.16;101439.84;4789218;29;20134;-77
2021/06/28 09:56:52;;;;;;;18.65;6.47;;;;;;;21.56;58.32;101441.78;4790485;29;20028;-77
2021/06/28 09:59:23;;;;;;;15.48;6.68;;;;;;;21.50;58.66;101417.34;4785011;30;20052;-78
2021/06/28 10:01:52;;;;;;;16.95;6.28;;;;;;;21.64;58.55;101412.28;4789579;29;20027;-78
2021/06/28 10:04:46;;;;;;;16.27;6.15;;;;;;;21.65;58.28;101417.47;4791959;29;20085;-77
2021/06/28 10:07:27;;;;;;;15.32;6.00;;;;;;;21.80;57.89;101441.47;4793964;29;20104;-77
2021/06/28 10:10:12;;;;;;;13.52;5.97;;;;;;;21.50;58.01;101440.06;4786937;30;20456;-78
2021/06/28 10:12:39;;;;;;;19.15;6.68;;;;;;;21.18;59.42;101444.56;4786448;30;20042;-77
2021/06/28 10:15:09;;;;;;;18.42;6.70;;;;;;;21.15;59.73;101425.91;4786441;30;20042;-77
2021/06/28 10:17:35;;;;;;;17.63;6.70;;;;;;;21.30;59.25;101440.63;4792763;29;20141;-76
2021/06/28 10:20:00;;;;;;;16.60;6.40;;;;;;;21.24;58.69;101441.63;4800557;29;20042;-77
2021/06/28 10:22:26;;;;;;;19.92;6.95;;;;;;;21.04;60.17;101436.72;4784968;29;20035;-78
2021/06/28 10:24:52;;;;;;;17.60;7.15;;;;;;;21.07;59.88;101421.72;4787492;29;20035;-78
2021/06/28 10:27:19;;;;;;;21.90;6.07;;;;;;;21.35;59.54;101437.13;4786935;29;20035;-78
2021/06/28 10:29:45;;;;;;;16.65;6.70;;;;;;;21.26;59.86;101444.13;4768521;30;20031;-78
2021/06/28 10:32:12;;;;;;;16.02;6.53;;;;;;;21.11;59.56;101436.53;4793638;29;20050;-78
2021/06/28 10:34:48;;;;;;;17.25;5.93;;;;;;;21.15;58.78;101426.72;4791871;29;20035;-77
2021/06/28 10:37:38;;;;;;;15.38;6.45;;;;;;;21.44;59.10;101437.53;4780369;29;20387;-78
2021/06/28 10:40:12;;;;;;;15.52;5.78;;;;;;;21.36;59.18;101416.91;4792129;29;20039;-77
2021/06/28 10:42:45;;;;;;;16.65;6.20;;;;;;;21.46;58.69;101443.59;4799548;29;20477;-77
2021/06/28 10:45:13;;;;;;;15.57;6.35;;;;;;;21.30;58.80;101418.72;4784513;29;20097;-77
2021/06/28 10:47:40;;;;;;;16.98;6.28;;;;;;;21.47;59.14;101439.75;4788177;29;20024;-77
2021/06/28 10:50:08;;;;;;;17.70;6.55;;;;;;;21.54;58.48;101430.25;4794246;29;20041;-77
2021/06/28 10:52:33;;;;;;;20.77;6.78;;;;;;;21.51;58.37;101432.66;4780070;30;20043;-77
2021/06/28 10:54:59;;;;;;;16.45;6.65;;;;;;;21.43;59.14;101428.47;4796880;29;20031;-77
2021/06/28 10:57:39;;;;;;;15.18;6.63;;;;;;;21.38;58.82;101422.94;4773143;30;20047;-77
2021/06/28 11:00:05;;;;;;;16.13;6.72;;;;;;;21.31;58.83;101430.50;4794523;29;20035;-78
2021/06/28 11:02:37;;;;;;;19.25;6.82;;;;;;;21.52;59.34;101437.91;4793314;29;20133;-77
2021/06/28 11:05:04;;;;;;;15.30;6.68;;;;;;;21.67;58.07;101439.97;4791361;29;20051;-78
2021/06/28 11:07:42;;;;;;;22.25;7.22;;;;;;;21.14;57.62;101421.53;4791344;29;20031;-77
2021/06/28 11:10:13;;;;;;;16.58;6.75;;;;;;;20.80;58.93;101432.56;4781975;29;20042;-77
2021/06/28 11:12:39;;;;;;;16.65;6.85;;;;;;;20.77;59.94;101420.22;4768396;30;20506;-77
2021/06/28 11:15:20;;;;;;;17.17;6.55;;;;;;;20.92;58.78;101416.03;4783927;29;20043;-78
2021/06/28 11:17:50;;;;;;;16.13;7.07;;;;;;;20.91;58.40;101417.13;4789671;29;20031;-78